Alvord, Texas
Current Conditions -  °F | °C
As of 6:55 AM on Sunday 23 Nov 2014 (Local Time) from KLUD Reporting Station
Clear Clear  
Wind Chill: 54°   Ceiling: Unl
Heat Index: 54°   Visibility: 10mi
Dew Point: 52°   Wind: 14mph
Humidity: 94%   Direction: 170°S
Pressure: 29.55"   Gusts: NA
Location:  33.36°N, 97.69°W
Report Text: KLUD 231255Z AUTO 17012KT 10SM CLR 12/11 A2955 RMK AO2 T01200110
Loading
Personal Weather Stations






























Interactive Weather Map New forecast layout! Learn more

10-Day Weather Forecast

Advertisements
Track Severe Weather on mobile